sensor_id;sensor_type;location;lat;lon;timestamp;pressure;altitude;pressure_sealevel;temperature;humidity
51526;BME280;37611;51.794;21.590;2022-07-29T00:00:16;100468.76;;;13.92;85.21
51526;BME280;37611;51.794;21.590;2022-07-29T00:04:36;100469.14;;;13.85;85.10
51526;BME280;37611;51.794;21.590;2022-07-29T00:08:38;100466.85;;;13.75;85.53
51526;BME280;37611;51.794;21.590;2022-07-29T00:12:40;100464.02;;;13.71;85.53
51526;BME280;37611;51.794;21.590;2022-07-29T00:16:42;100466.22;;;13.76;85.90
51526;BME280;37611;51.794;21.590;2022-07-29T00:20:43;100468.56;;;13.80;85.57
51526;BME280;37611;51.794;21.590;2022-07-29T00:24:47;100466.52;;;13.80;85.93
51526;BME280;37611;51.794;21.590;2022-07-29T00:28:50;100465.18;;;13.81;85.97
51526;BME280;37611;51.794;21.590;2022-07-29T00:32:51;100462.99;;;13.78;85.68
51526;BME280;37611;51.794;21.590;2022-07-29T00:36:53;100456.87;;;13.73;85.46
51526;BME280;37611;51.794;21.590;2022-07-29T00:40:55;100456.15;;;13.63;85.87
51526;BME280;37611;51.794;21.590;2022-07-29T00:44:56;100456.96;;;13.48;86.61
51526;BME280;37611;51.794;21.590;2022-07-29T00:48:58;100465.61;;;13.46;86.82
51526;BME280;37611;51.794;21.590;2022-07-29T00:53:00;100463.88;;;13.44;86.53
51526;BME280;37611;51.794;21.590;2022-07-29T00:57:02;100463.44;;;13.43;86.65
51526;BME280;37611;51.794;21.590;2022-07-29T01:01:04;100466.94;;;13.44;86.27
51526;BME280;37611;51.794;21.590;2022-07-29T01:05:06;100460.97;;;13.44;86.49
51526;BME280;37611;51.794;21.590;2022-07-29T01:09:09;100455.52;;;13.42;86.74
51526;BME280;37611;51.794;21.590;2022-07-29T01:13:11;100463.86;;;13.50;86.55
51526;BME280;37611;51.794;21.590;2022-07-29T01:21:56;100463.02;;;13.44;85.77
51526;BME280;37611;51.794;21.590;2022-07-29T01:30:38;100463.00;;;13.33;86.12
51526;BME280;37611;51.794;21.590;2022-07-29T01:39:02;100458.78;;;13.31;86.37
51526;BME280;37611;51.794;21.590;2022-07-29T01:43:14;100460.81;;;13.23;86.27
51526;BME280;37611;51.794;21.590;2022-07-29T01:47:20;100461.20;;;13.12;86.48
51526;BME280;37611;51.794;21.590;2022-07-29T01:51:31;100458.18;;;13.09;86.93
51526;BME280;37611;51.794;21.590;2022-07-29T01:55:38;100456.58;;;13.06;86.62
51526;BME280;37611;51.794;21.590;2022-07-29T01:59:43;100462.27;;;13.02;87.22
51526;BME280;37611;51.794;21.590;2022-07-29T02:03:47;100467.63;;;12.92;87.50
51526;BME280;37611;51.794;21.590;2022-07-29T02:07:50;100473.86;;;12.85;87.80
51526;BME280;37611;51.794;21.590;2022-07-29T02:11:54;100475.48;;;12.81;88.06
51526;BME280;37611;51.794;21.590;2022-07-29T02:15:58;100479.75;;;12.73;87.89
51526;BME280;37611;51.794;21.590;2022-07-29T02:20:03;100480.93;;;12.68;87.94
51526;BME280;37611;51.794;21.590;2022-07-29T02:24:07;100479.90;;;12.66;87.93
51526;BME280;37611;51.794;21.590;2022-07-29T02:28:10;100479.44;;;12.62;88.44
51526;BME280;37611;51.794;21.590;2022-07-29T02:32:14;100475.25;;;12.57;88.73
51526;BME280;37611;51.794;21.590;2022-07-29T02:36:17;100478.88;;;12.58;88.92
51526;BME280;37611;51.794;21.590;2022-07-29T02:40:22;100475.32;;;12.58;88.93
51526;BME280;37611;51.794;21.590;2022-07-29T02:44:25;100482.76;;;12.61;88.86
51526;BME280;37611;51.794;21.590;2022-07-29T02:48:36;100482.66;;;12.65;88.39
51526;BME280;37611;51.794;21.590;2022-07-29T02:52:47;100484.30;;;12.71;88.33
51526;BME280;37611;51.794;21.590;2022-07-29T02:56:55;100481.23;;;12.78;88.38
51526;BME280;37611;51.794;21.590;2022-07-29T03:01:03;100478.73;;;12.83;88.34
51526;BME280;37611;51.794;21.590;2022-07-29T03:05:08;100484.01;;;12.89;88.24
51526;BME280;37611;51.794;21.590;2022-07-29T03:09:11;100491.02;;;12.92;88.25
51526;BME280;37611;51.794;21.590;2022-07-29T03:13:14;100495.27;;;12.95;88.26
51526;BME280;37611;51.794;21.590;2022-07-29T03:17:17;100498.08;;;12.94;87.83
51526;BME280;37611;51.794;21.590;2022-07-29T03:21:19;100498.54;;;12.94;87.55
51526;BME280;37611;51.794;21.590;2022-07-29T03:25:21;100498.16;;;12.93;87.86
51526;BME280;37611;51.794;21.590;2022-07-29T03:29:23;100497.43;;;12.96;88.00
51526;BME280;37611;51.794;21.590;2022-07-29T03:33:26;100503.39;;;13.06;88.17
51526;BME280;37611;51.794;21.590;2022-07-29T03:37:28;100508.47;;;13.17;87.57
51526;BME280;37611;51.794;21.590;2022-07-29T03:41:33;100511.55;;;13.26;86.92
51526;BME280;37611;51.794;21.590;2022-07-29T03:45:36;100506.95;;;13.26;86.54
51526;BME280;37611;51.794;21.590;2022-07-29T03:49:40;100504.92;;;13.27;87.15
51526;BME280;37611;51.794;21.590;2022-07-29T03:53:42;100498.48;;;13.30;87.32
51526;BME280;37611;51.794;21.590;2022-07-29T03:57:45;100495.99;;;13.40;87.62
51526;BME280;37611;51.794;21.590;2022-07-29T04:01:48;100495.85;;;13.53;87.41
51526;BME280;37611;51.794;21.590;2022-07-29T04:06:01;100494.23;;;13.71;87.41
51526;BME280;37611;51.794;21.590;2022-07-29T04:10:04;100492.80;;;13.93;87.40
51526;BME280;37611;51.794;21.590;2022-07-29T04:14:06;100496.64;;;14.18;87.08
51526;BME280;37611;51.794;21.590;2022-07-29T04:18:08;100495.71;;;14.46;87.04
51526;BME280;37611;51.794;21.590;2022-07-29T04:22:10;100494.27;;;14.76;86.74
51526;BME280;37611;51.794;21.590;2022-07-29T04:26:12;100491.82;;;15.07;85.97
51526;BME280;37611;51.794;21.590;2022-07-29T04:30:13;100491.92;;;15.34;85.68
51526;BME280;37611;51.794;21.590;2022-07-29T04:34:15;100492.80;;;15.72;85.13
51526;BME280;37611;51.794;21.590;2022-07-29T04:38:17;100492.07;;;16.08;84.45
51526;BME280;37611;51.794;21.590;2022-07-29T04:42:18;100496.13;;;16.34;83.93
51526;BME280;37611;51.794;21.590;2022-07-29T04:46:20;100495.59;;;16.62;83.20
51526;BME280;37611;51.794;21.590;2022-07-29T04:50:22;100502.17;;;16.88;82.84
51526;BME280;37611;51.794;21.590;2022-07-29T04:54:24;100500.33;;;17.18;82.01
51526;BME280;37611;51.794;21.590;2022-07-29T04:58:26;100505.25;;;17.43;81.80
51526;BME280;37611;51.794;21.590;2022-07-29T05:02:27;100508.27;;;17.71;81.00
51526;BME280;37611;51.794;21.590;2022-07-29T05:06:29;100503.24;;;17.88;80.60
51526;BME280;37611;51.794;21.590;2022-07-29T05:10:31;100509.45;;;18.06;79.97
51526;BME280;37611;51.794;21.590;2022-07-29T05:14:33;100512.28;;;18.22;79.44
51526;BME280;37611;51.794;21.590;2022-07-29T05:18:35;100509.98;;;18.38;79.26
51526;BME280;37611;51.794;21.590;2022-07-29T05:22:36;100509.17;;;18.63;78.90
51526;BME280;37611;51.794;21.590;2022-07-29T05:26:39;100516.73;;;18.88;77.75
51526;BME280;37611;51.794;21.590;2022-07-29T05:30:41;100521.39;;;18.92;77.36
51526;BME280;37611;51.794;21.590;2022-07-29T05:34:43;100522.87;;;19.05;77.06
51526;BME280;37611;51.794;21.590;2022-07-29T05:38:45;100519.59;;;19.17;76.38
51526;BME280;37611;51.794;21.590;2022-07-29T05:42:46;100512.77;;;19.28;76.15
51526;BME280;37611;51.794;21.590;2022-07-29T05:46:48;100518.84;;;19.37;75.49
51526;BME280;37611;51.794;21.590;2022-07-29T05:50:50;100521.30;;;19.55;75.42
51526;BME280;37611;51.794;21.590;2022-07-29T05:54:52;100514.61;;;19.75;74.17
51526;BME280;37611;51.794;21.590;2022-07-29T05:58:54;100511.08;;;19.81;73.26
51526;BME280;37611;51.794;21.590;2022-07-29T06:02:56;100508.58;;;19.87;73.08
51526;BME280;37611;51.794;21.590;2022-07-29T06:06:58;100500.92;;;19.91;72.29
51526;BME280;37611;51.794;21.590;2022-07-29T06:11:00;100500.41;;;19.93;71.70
51526;BME280;37611;51.794;21.590;2022-07-29T06:15:03;100492.55;;;19.90;72.03
51526;BME280;37611;51.794;21.590;2022-07-29T06:19:05;100495.88;;;19.99;72.20
51526;BME280;37611;51.794;21.590;2022-07-29T06:23:07;100491.41;;;20.08;71.86
51526;BME280;37611;51.794;21.590;2022-07-29T06:27:11;100491.64;;;20.25;70.99
51526;BME280;37611;51.794;21.590;2022-07-29T06:31:13;100493.42;;;20.31;70.30
51526;BME280;37611;51.794;21.590;2022-07-29T06:35:15;100489.81;;;20.44;69.75
51526;BME280;37611;51.794;21.590;2022-07-29T06:39:16;100496.05;;;20.57;68.65
51526;BME280;37611;51.794;21.590;2022-07-29T06:43:18;100498.39;;;20.68;68.37
51526;BME280;37611;51.794;21.590;2022-07-29T06:47:20;100491.31;;;20.75;67.41
51526;BME280;37611;51.794;21.590;2022-07-29T06:51:24;100494.65;;;20.81;67.59
51526;BME280;37611;51.794;21.590;2022-07-29T06:55:27;100490.23;;;20.94;67.78
51526;BME280;37611;51.794;21.590;2022-07-29T06:59:28;100495.23;;;21.15;66.98
51526;BME280;37611;51.794;21.590;2022-07-29T07:03:30;100495.70;;;21.23;64.97
51526;BME280;37611;51.794;21.590;2022-07-29T07:07:32;100497.14;;;21.29;65.37
51526;BME280;37611;51.794;21.590;2022-07-29T07:11:34;100496.65;;;21.48;63.68
51526;BME280;37611;51.794;21.590;2022-07-29T07:15:36;100497.80;;;21.60;63.17
51526;BME280;37611;51.794;21.590;2022-07-29T07:19:38;100496.11;;;21.70;62.37
51526;BME280;37611;51.794;21.590;2022-07-29T07:23:40;100495.19;;;21.80;62.09
51526;BME280;37611;51.794;21.590;2022-07-29T07:27:41;100498.00;;;21.86;60.66
51526;BME280;37611;51.794;21.590;2022-07-29T07:31:43;100500.48;;;21.98;60.02
51526;BME280;37611;51.794;21.590;2022-07-29T07:35:45;100502.21;;;22.07;60.10
51526;BME280;37611;51.794;21.590;2022-07-29T07:39:48;100503.55;;;22.12;59.45
51526;BME280;37611;51.794;21.590;2022-07-29T07:43:50;100497.95;;;22.27;59.57
51526;BME280;37611;51.794;21.590;2022-07-29T07:47:53;100497.02;;;22.40;58.59
51526;BME280;37611;51.794;21.590;2022-07-29T07:51:55;100502.56;;;22.55;58.33
51526;BME280;37611;51.794;21.590;2022-07-29T07:55:57;100507.28;;;22.60;57.02
51526;BME280;37611;51.794;21.590;2022-07-29T07:59:59;100501.61;;;22.65;57.38
51526;BME280;37611;51.794;21.590;2022-07-29T08:04:00;100507.23;;;22.77;56.93
51526;BME280;37611;51.794;21.590;2022-07-29T08:08:03;100508.49;;;22.83;57.52
51526;BME280;37611;51.794;21.590;2022-07-29T08:12:04;100508.88;;;23.02;56.52
51526;BME280;37611;51.794;21.590;2022-07-29T08:16:07;100506.27;;;23.19;56.31
51526;BME280;37611;51.794;21.590;2022-07-29T08:20:16;100507.23;;;23.25;55.15
51526;BME280;37611;51.794;21.590;2022-07-29T08:24:19;100497.20;;;23.19;54.59
51526;BME280;37611;51.794;21.590;2022-07-29T08:28:41;100508.70;;;23.20;54.19
51526;BME280;37611;51.794;21.590;2022-07-29T08:32:47;100504.86;;;23.26;54.40
51526;BME280;37611;51.794;21.590;2022-07-29T08:36:49;100506.38;;;23.42;53.05
51526;BME280;37611;51.794;21.590;2022-07-29T08:40:51;100507.52;;;23.43;52.68
51526;BME280;37611;51.794;21.590;2022-07-29T08:44:54;100507.16;;;23.47;52.83
51526;BME280;37611;51.794;21.590;2022-07-29T08:48:56;100511.85;;;23.54;51.47
51526;BME280;37611;51.794;21.590;2022-07-29T08:52:58;100506.42;;;23.56;51.28
51526;BME280;37611;51.794;21.590;2022-07-29T08:57:00;100503.34;;;23.67;51.22
51526;BME280;37611;51.794;21.590;2022-07-29T09:01:03;100502.93;;;23.66;50.54
51526;BME280;37611;51.794;21.590;2022-07-29T09:05:06;100495.40;;;23.50;51.00
51526;BME280;37611;51.794;21.590;2022-07-29T09:09:08;100500.67;;;23.47;50.11
51526;BME280;37611;51.794;21.590;2022-07-29T09:13:10;100495.55;;;23.33;50.00
51526;BME280;37611;51.794;21.590;2022-07-29T09:17:47;100495.05;;;23.38;49.89
51526;BME280;37611;51.794;21.590;2022-07-29T09:21:49;100485.28;;;23.41;50.35
51526;BME280;37611;51.794;21.590;2022-07-29T09:26:05;100486.17;;;23.63;50.53
51526;BME280;37611;51.794;21.590;2022-07-29T09:30:09;100483.49;;;23.77;49.78
51526;BME280;37611;51.794;21.590;2022-07-29T09:34:14;100485.13;;;23.79;49.47
51526;BME280;37611;51.794;21.590;2022-07-29T09:38:16;100475.87;;;23.88;49.84
51526;BME280;37611;51.794;21.590;2022-07-29T09:42:28;100473.88;;;24.09;49.42
51526;BME280;37611;51.794;21.590;2022-07-29T09:46:30;100478.96;;;24.25;48.78
51526;BME280;37611;51.794;21.590;2022-07-29T09:50:39;100481.17;;;24.15;47.43
51526;BME280;37611;51.794;21.590;2022-07-29T09:54:41;100472.75;;;24.07;47.23
51526;BME280;37611;51.794;21.590;2022-07-29T09:58:43;100466.45;;;24.18;47.04
51526;BME280;37611;51.794;21.590;2022-07-29T10:02:46;100464.48;;;24.13;46.61
51526;BME280;37611;51.794;21.590;2022-07-29T10:07:02;100461.51;;;24.08;46.59
51526;BME280;37611;51.794;21.590;2022-07-29T10:15:11;100455.73;;;24.00;47.04
51526;BME280;37611;51.794;21.590;2022-07-29T10:19:13;100455.48;;;24.03;46.72
51526;BME280;37611;51.794;21.590;2022-07-29T10:23:15;100447.98;;;24.19;46.75
51526;BME280;37611;51.794;21.590;2022-07-29T10:27:17;100444.06;;;24.39;47.06
51526;BME280;37611;51.794;21.590;2022-07-29T10:31:28;100437.08;;;24.53;47.22
51526;BME280;37611;51.794;21.590;2022-07-29T10:44:32;100429.06;;;24.65;45.63
51526;BME280;37611;51.794;21.590;2022-07-29T10:48:34;100423.38;;;24.84;45.03
51526;BME280;37611;51.794;21.590;2022-07-29T10:52:55;100417.47;;;24.84;44.52
51526;BME280;37611;51.794;21.590;2022-07-29T11:01:30;100424.44;;;24.79;44.50
51526;BME280;37611;51.794;21.590;2022-07-29T11:05:52;100419.34;;;24.86;43.88
51526;BME280;37611;51.794;21.590;2022-07-29T11:14:15;100413.64;;;24.99;43.96
51526;BME280;37611;51.794;21.590;2022-07-29T11:18:18;100411.17;;;24.99;43.77
51526;BME280;37611;51.794;21.590;2022-07-29T11:22:34;100407.93;;;24.88;43.37
51526;BME280;37611;51.794;21.590;2022-07-29T11:26:37;100409.71;;;24.72;43.49
51526;BME280;37611;51.794;21.590;2022-07-29T11:30:49;100408.27;;;24.79;43.12
51526;BME280;37611;51.794;21.590;2022-07-29T11:39:29;100412.79;;;25.02;43.22
51526;BME280;37611;51.794;21.590;2022-07-29T11:43:53;100410.70;;;25.13;42.29
51526;BME280;37611;51.794;21.590;2022-07-29T11:47:57;100409.39;;;25.07;42.69
51526;BME280;37611;51.794;21.590;2022-07-29T11:52:02;100405.55;;;25.14;43.00
51526;BME280;37611;51.794;21.590;2022-07-29T11:56:04;100398.83;;;25.23;42.11
51526;BME280;37611;51.794;21.590;2022-07-29T12:00:09;100396.50;;;25.11;42.43
51526;BME280;37611;51.794;21.590;2022-07-29T12:04:12;100394.30;;;25.17;42.41
51526;BME280;37611;51.794;21.590;2022-07-29T12:08:19;100390.07;;;25.18;42.52
51526;BME280;37611;51.794;21.590;2022-07-29T12:12:23;100380.11;;;25.20;42.93
51526;BME280;37611;51.794;21.590;2022-07-29T12:16:35;100380.92;;;25.23;42.48
51526;BME280;37611;51.794;21.590;2022-07-29T12:20:37;100380.36;;;25.22;42.14
51526;BME280;37611;51.794;21.590;2022-07-29T12:24:43;100374.79;;;25.12;41.47
51526;BME280;37611;51.794;21.590;2022-07-29T12:28:46;100381.30;;;25.01;41.89
51526;BME280;37611;51.794;21.590;2022-07-29T12:32:49;100379.06;;;24.90;42.44
51526;BME280;37611;51.794;21.590;2022-07-29T12:36:51;100379.20;;;24.84;43.07
51526;BME280;37611;51.794;21.590;2022-07-29T12:40:54;100376.44;;;24.91;42.85
51526;BME280;37611;51.794;21.590;2022-07-29T12:44:56;100367.77;;;24.91;42.63
51526;BME280;37611;51.794;21.590;2022-07-29T12:48:57;100362.30;;;24.97;42.37
51526;BME280;37611;51.794;21.590;2022-07-29T12:53:11;100358.73;;;25.01;42.28
51526;BME280;37611;51.794;21.590;2022-07-29T12:57:13;100356.99;;;24.97;42.09
51526;BME280;37611;51.794;21.590;2022-07-29T13:01:17;100362.63;;;25.02;42.30
51526;BME280;37611;51.794;21.590;2022-07-29T13:05:19;100355.07;;;25.10;41.92
51526;BME280;37611;51.794;21.590;2022-07-29T13:09:22;100351.45;;;25.09;42.01
51526;BME280;37611;51.794;21.590;2022-07-29T13:13:24;100349.35;;;25.11;42.01
51526;BME280;37611;51.794;21.590;2022-07-29T13:17:26;100344.11;;;25.10;42.05
51526;BME280;37611;51.794;21.590;2022-07-29T13:21:30;100341.05;;;25.15;42.26
51526;BME280;37611;51.794;21.590;2022-07-29T13:25:32;100342.98;;;25.19;41.81
51526;BME280;37611;51.794;21.590;2022-07-29T13:29:34;100341.45;;;25.15;41.73
51526;BME280;37611;51.794;21.590;2022-07-29T13:33:36;100341.23;;;25.12;41.92
51526;BME280;37611;51.794;21.590;2022-07-29T13:37:37;100340.09;;;25.13;42.18
51526;BME280;37611;51.794;21.590;2022-07-29T13:41:39;100332.05;;;25.07;41.97
51526;BME280;37611;51.794;21.590;2022-07-29T13:45:41;100323.27;;;25.13;42.13
51526;BME280;37611;51.794;21.590;2022-07-29T13:49:43;100325.97;;;25.14;41.53
51526;BME280;37611;51.794;21.590;2022-07-29T13:53:46;100324.34;;;25.04;42.12
51526;BME280;37611;51.794;21.590;2022-07-29T14:20:33;100305.50;;;24.75;42.00
51526;BME280;37611;51.794;21.590;2022-07-29T14:24:38;100304.52;;;24.80;41.62
51526;BME280;37611;51.794;21.590;2022-07-29T14:28:40;100301.17;;;24.90;41.80
51526;BME280;37611;51.794;21.590;2022-07-29T14:32:43;100301.77;;;25.02;41.17
51526;BME280;37611;51.794;21.590;2022-07-29T14:36:44;100299.68;;;25.05;41.63
51526;BME280;37611;51.794;21.590;2022-07-29T14:40:46;100300.52;;;25.08;41.71
51526;BME280;37611;51.794;21.590;2022-07-29T14:44:48;100292.11;;;25.02;41.38
51526;BME280;37611;51.794;21.590;2022-07-29T14:48:50;100290.40;;;24.98;41.53
51526;BME280;37611;51.794;21.590;2022-07-29T14:52:52;100286.35;;;24.93;41.70
51526;BME280;37611;51.794;21.590;2022-07-29T14:56:54;100281.15;;;25.00;41.57
51526;BME280;37611;51.794;21.590;2022-07-29T15:00:58;100276.20;;;25.00;41.21
51526;BME280;37611;51.794;21.590;2022-07-29T15:05:00;100273.87;;;25.01;40.95
51526;BME280;37611;51.794;21.590;2022-07-29T15:09:02;100271.11;;;25.06;41.55
51526;BME280;37611;51.794;21.590;2022-07-29T15:13:04;100262.68;;;25.06;41.35
51526;BME280;37611;51.794;21.590;2022-07-29T15:17:05;100262.46;;;25.01;41.04
51526;BME280;37611;51.794;21.590;2022-07-29T15:21:08;100259.23;;;24.86;41.36
51526;BME280;37611;51.794;21.590;2022-07-29T15:25:09;100256.70;;;24.78;41.58
51526;BME280;37611;51.794;21.590;2022-07-29T15:29:11;100253.98;;;24.78;41.71
51526;BME280;37611;51.794;21.590;2022-07-29T15:33:13;100251.18;;;24.78;41.77
51526;BME280;37611;51.794;21.590;2022-07-29T15:37:15;100242.69;;;24.75;42.00
51526;BME280;37611;51.794;21.590;2022-07-29T15:41:17;100243.48;;;24.65;42.18
51526;BME280;37611;51.794;21.590;2022-07-29T15:45:18;100239.62;;;24.52;42.29
51526;BME280;37611;51.794;21.590;2022-07-29T15:49:20;100231.73;;;24.38;42.37
51526;BME280;37611;51.794;21.590;2022-07-29T15:53:22;100223.59;;;24.32;42.49
51526;BME280;37611;51.794;21.590;2022-07-29T15:57:26;100217.39;;;24.28;42.12
51526;BME280;37611;51.794;21.590;2022-07-29T16:01:28;100219.83;;;24.24;42.37
51526;BME280;37611;51.794;21.590;2022-07-29T16:05:30;100215.70;;;24.21;42.69
51526;BME280;37611;51.794;21.590;2022-07-29T16:09:33;100214.29;;;24.18;42.85
51526;BME280;37611;51.794;21.590;2022-07-29T16:13:35;100220.57;;;24.13;43.16
51526;BME280;37611;51.794;21.590;2022-07-29T16:17:38;100216.63;;;24.10;43.28
51526;BME280;37611;51.794;21.590;2022-07-29T16:21:40;100209.67;;;24.05;42.96
51526;BME280;37611;51.794;21.590;2022-07-29T16:25:41;100208.06;;;23.98;42.62
51526;BME280;37611;51.794;21.590;2022-07-29T16:29:43;100208.27;;;23.90;42.63
51526;BME280;37611;51.794;21.590;2022-07-29T16:33:51;100213.88;;;23.87;42.51
51526;BME280;37611;51.794;21.590;2022-07-29T16:37:53;100221.95;;;23.83;42.79
51526;BME280;37611;51.794;21.590;2022-07-29T16:41:54;100234.73;;;23.77;43.17
51526;BME280;37611;51.794;21.590;2022-07-29T16:45:56;100230.95;;;23.68;43.34
51526;BME280;37611;51.794;21.590;2022-07-29T16:49:58;100232.29;;;23.64;43.43
51526;BME280;37611;51.794;21.590;2022-07-29T16:54:00;100231.32;;;23.60;43.72
51526;BME280;37611;51.794;21.590;2022-07-29T16:58:03;100227.36;;;23.57;43.86
51526;BME280;37611;51.794;21.590;2022-07-29T17:02:05;100230.14;;;23.54;44.00
51526;BME280;37611;51.794;21.590;2022-07-29T17:06:06;100234.66;;;23.48;44.35
51526;BME280;37611;51.794;21.590;2022-07-29T17:10:09;100233.31;;;23.45;44.40
51526;BME280;37611;51.794;21.590;2022-07-29T17:14:11;100234.50;;;23.41;44.45
51526;BME280;37611;51.794;21.590;2022-07-29T17:18:13;100228.89;;;23.33;44.63
51526;BME280;37611;51.794;21.590;2022-07-29T17:22:15;100223.36;;;23.26;44.75
51526;BME280;37611;51.794;21.590;2022-07-29T17:26:17;100224.85;;;23.17;44.79
51526;BME280;37611;51.794;21.590;2022-07-29T17:30:19;100225.79;;;23.04;45.10
51526;BME280;37611;51.794;21.590;2022-07-29T17:34:21;100229.36;;;22.93;45.38
51526;BME280;37611;51.794;21.590;2022-07-29T17:38:22;100236.23;;;22.83;45.65
51526;BME280;37611;51.794;21.590;2022-07-29T17:42:24;100241.94;;;22.73;46.09
51526;BME280;37611;51.794;21.590;2022-07-29T17:46:26;100241.90;;;22.62;46.32
51526;BME280;37611;51.794;21.590;2022-07-29T17:50:28;100238.36;;;22.49;46.56
51526;BME280;37611;51.794;21.590;2022-07-29T17:54:30;100240.86;;;22.39;46.99
51526;BME280;37611;51.794;21.590;2022-07-29T17:58:32;100239.52;;;22.26;47.27
51526;BME280;37611;51.794;21.590;2022-07-29T18:02:34;100244.31;;;22.15;47.51
51526;BME280;37611;51.794;21.590;2022-07-29T18:06:37;100245.54;;;22.03;47.74
51526;BME280;37611;51.794;21.590;2022-07-29T18:10:39;100249.89;;;21.91;48.02
51526;BME280;37611;51.794;21.590;2022-07-29T18:14:41;100246.11;;;21.82;48.34
51526;BME280;37611;51.794;21.590;2022-07-29T18:18:44;100245.70;;;21.72;48.42
51526;BME280;37611;51.794;21.590;2022-07-29T18:22:46;100247.48;;;21.61;48.80
51526;BME280;37611;51.794;21.590;2022-07-29T18:26:47;100239.73;;;21.49;49.05
51526;BME280;37611;51.794;21.590;2022-07-29T18:30:50;100236.25;;;21.36;49.32
51526;BME280;37611;51.794;21.590;2022-07-29T18:34:52;100239.91;;;21.26;49.53
51526;BME280;37611;51.794;21.590;2022-07-29T18:38:53;100240.48;;;21.19;49.80
51526;BME280;37611;51.794;21.590;2022-07-29T18:42:55;100243.55;;;21.14;49.93
51526;BME280;37611;51.794;21.590;2022-07-29T18:46:57;100246.80;;;21.07;50.11
51526;BME280;37611;51.794;21.590;2022-07-29T18:51:00;100246.42;;;21.04;50.26
51526;BME280;37611;51.794;21.590;2022-07-29T18:55:02;100247.38;;;20.99;50.41
51526;BME280;37611;51.794;21.590;2022-07-29T18:59:04;100247.58;;;20.94;50.59
51526;BME280;37611;51.794;21.590;2022-07-29T19:03:06;100250.70;;;20.89;51.00
51526;BME280;37611;51.794;21.590;2022-07-29T19:07:08;100244.83;;;20.80;51.15
51526;BME280;37611;51.794;21.590;2022-07-29T19:11:10;100245.23;;;20.70;51.49
51526;BME280;37611;51.794;21.590;2022-07-29T19:15:13;100253.20;;;20.62;51.77
51526;BME280;37611;51.794;21.590;2022-07-29T19:19:15;100254.26;;;20.52;52.00
51526;BME280;37611;51.794;21.590;2022-07-29T19:23:16;100255.20;;;20.49;52.36
51526;BME280;37611;51.794;21.590;2022-07-29T19:27:18;100259.84;;;20.44;52.73
51526;BME280;37611;51.794;21.590;2022-07-29T19:31:20;100255.96;;;20.37;53.05
51526;BME280;37611;51.794;21.590;2022-07-29T19:35:22;100261.77;;;20.31;53.28
51526;BME280;37611;51.794;21.590;2022-07-29T19:39:32;100259.92;;;20.25;53.78
51526;BME280;37611;51.794;21.590;2022-07-29T19:43:34;100262.81;;;20.22;54.17
51526;BME280;37611;51.794;21.590;2022-07-29T19:47:37;100266.67;;;20.19;54.35
51526;BME280;37611;51.794;21.590;2022-07-29T19:51:39;100263.15;;;20.15;54.76
51526;BME280;37611;51.794;21.590;2022-07-29T19:55:42;100265.59;;;20.11;55.26
51526;BME280;37611;51.794;21.590;2022-07-29T19:59:43;100261.27;;;20.09;55.51
51526;BME280;37611;51.794;21.590;2022-07-29T20:03:45;100267.36;;;20.06;55.89
51526;BME280;37611;51.794;21.590;2022-07-29T20:07:47;100264.56;;;20.01;56.28
51526;BME280;37611;51.794;21.590;2022-07-29T20:11:49;100264.98;;;19.97;56.68
51526;BME280;37611;51.794;21.590;2022-07-29T20:15:50;100265.66;;;19.91;57.15
51526;BME280;37611;51.794;21.590;2022-07-29T20:19:52;100262.91;;;19.83;57.59
51526;BME280;37611;51.794;21.590;2022-07-29T20:23:54;100258.03;;;19.76;57.63
51526;BME280;37611;51.794;21.590;2022-07-29T20:28:00;100257.21;;;19.69;58.06
51526;BME280;37611;51.794;21.590;2022-07-29T20:32:03;100258.80;;;19.62;58.51
51526;BME280;37611;51.794;21.590;2022-07-29T20:36:05;100255.63;;;19.55;58.75
51526;BME280;37611;51.794;21.590;2022-07-29T20:40:07;100254.84;;;19.47;59.18
51526;BME280;37611;51.794;21.590;2022-07-29T20:44:09;100250.29;;;19.41;59.32
51526;BME280;37611;51.794;21.590;2022-07-29T20:48:11;100247.95;;;19.34;59.52
51526;BME280;37611;51.794;21.590;2022-07-29T20:52:14;100242.85;;;19.30;59.83
51526;BME280;37611;51.794;21.590;2022-07-29T20:56:16;100237.35;;;19.24;60.07
51526;BME280;37611;51.794;21.590;2022-07-29T21:00:18;100233.54;;;19.19;60.08
51526;BME280;37611;51.794;21.590;2022-07-29T21:04:20;100230.82;;;19.15;60.34
51526;BME280;37611;51.794;21.590;2022-07-29T21:08:22;100223.48;;;19.07;60.66
51526;BME280;37611;51.794;21.590;2022-07-29T21:12:23;100221.63;;;19.01;60.85
51526;BME280;37611;51.794;21.590;2022-07-29T21:16:25;100223.16;;;18.95;61.26
51526;BME280;37611;51.794;21.590;2022-07-29T21:20:29;100220.11;;;18.87;61.26
51526;BME280;37611;51.794;21.590;2022-07-29T21:24:31;100214.66;;;18.82;61.76
51526;BME280;37611;51.794;21.590;2022-07-29T21:28:33;100210.66;;;18.75;62.23
51526;BME280;37611;51.794;21.590;2022-07-29T21:32:41;100204.27;;;18.68;62.39
51526;BME280;37611;51.794;21.590;2022-07-29T21:36:43;100203.61;;;18.64;62.82
51526;BME280;37611;51.794;21.590;2022-07-29T21:40:46;100196.86;;;18.58;62.75
51526;BME280;37611;51.794;21.590;2022-07-29T21:44:49;100202.33;;;18.55;63.11
51526;BME280;37611;51.794;21.590;2022-07-29T21:48:50;100205.90;;;18.54;63.01
51526;BME280;37611;51.794;21.590;2022-07-29T21:52:52;100211.75;;;18.53;63.29
51526;BME280;37611;51.794;21.590;2022-07-29T21:56:54;100211.09;;;18.50;63.32